createdAt,value
2023-08-15T00:00:29.007Z,84.54
2023-08-15T00:01:29.013Z,85.22
2023-08-15T00:02:29.118Z,83.28
2023-08-15T00:03:29.200Z,82.45
2023-08-15T00:04:29.189Z,82.07
2023-08-15T00:05:29.310Z,83.88
2023-08-15T00:06:29.301Z,83.42
2023-08-15T00:07:29.298Z,83.95
2023-08-15T00:08:29.390Z,83.41
2023-08-15T00:09:29.447Z,84.49
2023-08-15T00:10:29.464Z,83.13
2023-08-15T00:11:29.552Z,83.56
2023-08-15T00:12:29.603Z,84.33
2023-08-15T00:13:29.602Z,85.35
2023-08-15T00:14:29.698Z,85.03
2023-08-15T00:15:29.729Z,87.34
2023-08-15T00:16:29.819Z,84.41
2023-08-15T00:17:29.888Z,86.91
2023-08-15T00:18:29.888Z,85.62
2023-08-15T00:19:29.940Z,84.86
2023-08-15T00:20:29.977Z,85.21
2023-08-15T00:21:30.028Z,86.07
2023-08-15T00:22:30.141Z,83.99
2023-08-15T00:23:30.126Z,84.35
2023-08-15T00:24:30.189Z,85.79
2023-08-15T00:25:30.236Z,86.64
2023-08-15T00:26:30.376Z,85.90
2023-08-15T00:27:30.348Z,86.93
2023-08-15T00:28:30.389Z,86.85
2023-08-15T00:29:30.444Z,86.55
2023-08-15T00:30:30.508Z,84.42
2023-08-15T00:31:30.560Z,86.38
2023-08-15T00:32:30.663Z,87.36
2023-08-15T00:33:30.669Z,86.64
2023-08-15T00:34:30.706Z,85.85
2023-08-15T00:35:30.746Z,85.60
2023-08-15T00:36:30.845Z,86.62
2023-08-15T00:37:30.873Z,86.03
2023-08-15T00:38:30.899Z,88.38
2023-08-15T00:39:30.951Z,86.14
2023-08-15T00:40:31.007Z,84.24
2023-08-15T00:41:31.075Z,84.99
2023-08-15T00:42:31.135Z,85.94
2023-08-15T00:43:31.154Z,86.98
2023-08-15T00:44:31.233Z,87.87
2023-08-15T00:45:31.283Z,87.25
2023-08-15T00:46:31.391Z,84.93
2023-08-15T00:47:31.425Z,86.82
2023-08-15T00:48:31.458Z,85.91
2023-08-15T00:49:31.520Z,84.31
2023-08-15T00:50:31.548Z,82.65
2023-08-15T00:51:31.639Z,84.76
2023-08-15T00:52:31.684Z,87.32
2023-08-15T00:53:31.784Z,84.54
2023-08-15T00:54:31.797Z,87.04
2023-08-15T00:55:31.842Z,86.25
2023-08-15T00:56:31.905Z,87.29
2023-08-15T00:57:31.966Z,86.94
2023-08-15T00:58:32.029Z,86.72
2023-08-15T00:59:32.062Z,84.65
2023-08-15T01:00:32.115Z,84.81
2023-08-15T01:01:32.218Z,86.10
2023-08-15T01:02:32.305Z,85.96
2023-08-15T01:03:32.421Z,85.22
2023-08-15T01:04:32.334Z,88.48
2023-08-15T01:05:32.412Z,87.47
2023-08-15T01:06:32.454Z,87.36
2023-08-15T01:07:32.598Z,86.40
2023-08-15T01:08:32.575Z,84.96
2023-08-15T01:09:32.685Z,85.82
2023-08-15T01:10:32.711Z,87.84
2023-08-15T01:11:32.733Z,87.65
2023-08-15T01:12:32.804Z,86.71
2023-08-15T01:13:32.939Z,86.39
2023-08-15T01:14:32.915Z,87.43
2023-08-15T01:15:32.997Z,86.33
2023-08-15T01:16:33.084Z,85.22
2023-08-15T01:17:33.173Z,86.09
2023-08-15T01:18:33.180Z,86.81
2023-08-15T01:19:33.268Z,86.57
2023-08-15T01:20:33.350Z,84.12
2023-08-15T01:21:33.397Z,85.25
2023-08-15T01:22:33.509Z,84.57
2023-08-15T01:23:33.476Z,83.04
2023-08-15T01:24:33.548Z,84.97
2023-08-15T01:25:33.591Z,84.70
2023-08-15T01:26:33.678Z,85.46
2023-08-15T01:27:33.745Z,87.87
2023-08-15T01:28:33.807Z,87.18
2023-08-15T01:29:33.857Z,86.53
2023-08-15T01:30:33.937Z,86.71
2023-08-15T01:31:34.034Z,85.57
2023-08-15T01:32:34.100Z,86.86
2023-08-15T01:33:34.175Z,88.80
2023-08-15T01:34:34.188Z,87.41
2023-08-15T01:35:34.281Z,85.58
2023-08-15T01:36:34.305Z,87.38
2023-08-15T01:37:34.361Z,87.88
2023-08-15T01:38:34.446Z,87.58
2023-08-15T01:39:34.508Z,87.99
2023-08-15T01:40:34.580Z,88.81
2023-08-15T01:41:34.590Z,87.89
2023-08-15T01:42:34.688Z,88.20
2023-08-15T01:43:34.724Z,88.93
2023-08-15T01:44:34.788Z,88.74
2023-08-15T01:45:34.878Z,89.68
2023-08-15T01:46:35.004Z,88.17
2023-08-15T01:47:35.012Z,88.08
2023-08-15T01:48:35.073Z,87.99
2023-08-15T01:49:35.103Z,88.79
2023-08-15T01:50:35.188Z,88.56
2023-08-15T01:51:35.292Z,88.05
2023-08-15T01:52:35.289Z,86.01
2023-08-15T01:53:35.384Z,86.25
2023-08-15T01:54:35.428Z,86.84
2023-08-15T01:55:35.498Z,89.19
2023-08-15T01:56:35.532Z,87.17
2023-08-15T01:57:35.607Z,86.57
2023-08-15T01:58:35.647Z,85.03
2023-08-15T01:59:35.709Z,85.56
2023-08-15T02:00:35.806Z,85.24
2023-08-15T02:01:35.892Z,87.59
2023-08-15T02:02:35.969Z,87.91
2023-08-15T02:03:35.988Z,88.20
2023-08-15T02:04:36.040Z,88.09
2023-08-15T02:05:36.364Z,88.58
2023-08-15T02:06:36.162Z,87.25
2023-08-15T02:07:36.234Z,87.32
2023-08-15T02:08:36.277Z,86.57
2023-08-15T02:09:36.340Z,88.95
2023-08-15T02:10:36.449Z,87.49
2023-08-15T02:11:36.485Z,88.00
2023-08-15T02:12:36.518Z,88.78
2023-08-15T02:13:36.594Z,86.72
2023-08-15T02:14:36.663Z,88.90
2023-08-15T02:15:36.785Z,88.49
2023-08-15T02:16:36.795Z,90.44
2023-08-15T02:17:36.812Z,90.19
2023-08-15T02:18:37.960Z,90.40
2023-08-15T02:19:36.896Z,91.23
2023-08-15T02:20:36.952Z,89.39
2023-08-15T02:21:37.019Z,87.65
2023-08-15T02:22:37.072Z,87.53
2023-08-15T02:23:37.125Z,91.69
2023-08-15T02:24:37.186Z,91.06
2023-08-15T02:25:37.223Z,91.88
2023-08-15T02:26:37.308Z,90.03
2023-08-15T02:27:37.359Z,90.71
2023-08-15T02:28:37.426Z,89.48
2023-08-15T02:29:37.463Z,89.06
2023-08-15T02:30:37.457Z,90.01
2023-08-15T02:31:37.576Z,92.00
2023-08-15T02:32:37.630Z,91.70
2023-08-15T02:33:37.617Z,87.65
2023-08-15T02:34:37.632Z,87.42
2023-08-15T02:35:37.650Z,85.95
2023-08-15T02:36:37.713Z,87.08
2023-08-15T02:37:37.710Z,90.51
2023-08-15T02:38:37.752Z,90.61
2023-08-15T02:39:37.778Z,91.66
2023-08-15T02:40:37.800Z,88.69
2023-08-15T02:41:37.787Z,87.97
2023-08-15T02:42:37.805Z,88.15
2023-08-15T02:43:37.827Z,86.16
2023-08-15T02:44:37.837Z,87.19
2023-08-15T02:45:37.831Z,88.28
2023-08-15T02:46:37.919Z,88.21
2023-08-15T02:47:37.844Z,84.83
2023-08-15T02:48:37.821Z,84.96
2023-08-15T02:49:37.842Z,88.83
2023-08-15T02:50:37.859Z,88.75
2023-08-15T02:51:37.819Z,87.39
2023-08-15T02:52:37.833Z,87.56
2023-08-15T02:53:37.828Z,90.07
2023-08-15T02:54:37.830Z,90.03
2023-08-15T02:55:37.846Z,90.42
2023-08-15T02:56:37.863Z,88.70
2023-08-15T02:57:37.880Z,86.76
2023-08-15T02:58:37.865Z,90.37
2023-08-15T02:59:37.928Z,86.54
2023-08-15T03:00:37.953Z,85.57
2023-08-15T03:01:37.942Z,88.42
2023-08-15T03:02:38.092Z,88.68
2023-08-15T03:03:37.941Z,88.38
2023-08-15T03:04:37.969Z,90.18
2023-08-15T03:05:37.956Z,87.30
2023-08-15T03:06:37.935Z,87.05
2023-08-15T03:07:37.933Z,87.36
2023-08-15T03:08:37.980Z,88.81
2023-08-15T03:09:37.967Z,88.07
2023-08-15T03:10:37.972Z,86.27
2023-08-15T03:11:38.032Z,87.79
2023-08-15T03:12:37.970Z,87.92
2023-08-15T03:13:37.984Z,89.85
2023-08-15T03:14:37.999Z,85.03
2023-08-15T03:15:38.043Z,87.30
2023-08-15T03:16:38.093Z,87.49
2023-08-15T03:17:38.282Z,85.94
2023-08-15T03:18:38.016Z,87.17
2023-08-15T03:19:38.024Z,88.87
2023-08-15T03:20:37.994Z,86.02
2023-08-15T03:21:38.021Z,86.49
2023-08-15T03:22:37.989Z,86.91
2023-08-15T03:23:37.998Z,88.78
2023-08-15T03:24:37.986Z,87.61
2023-08-15T03:25:38.000Z,91.40
2023-08-15T03:26:38.040Z,91.92
2023-08-15T03:27:37.972Z,89.88
2023-08-15T03:28:38.027Z,90.92
2023-08-15T03:29:38.012Z,89.35
2023-08-15T03:30:38.037Z,89.26
2023-08-15T03:31:38.018Z,87.56
2023-08-15T03:32:38.042Z,89.26
2023-08-15T03:33:38.017Z,87.56
2023-08-15T03:34:38.010Z,88.19
2023-08-15T03:35:38.020Z,87.51
2023-08-15T03:36:37.986Z,88.45
2023-08-15T03:37:37.978Z,88.58
2023-08-15T03:38:38.015Z,89.78
2023-08-15T03:39:37.994Z,88.13
2023-08-15T03:40:37.974Z,87.48
2023-08-15T03:41:37.998Z,89.73
2023-08-15T03:42:38.028Z,86.52
2023-08-15T03:43:37.978Z,86.85
2023-08-15T03:44:38.044Z,87.38
2023-08-15T03:45:38.029Z,85.98
2023-08-15T03:46:38.029Z,88.06
2023-08-15T03:47:38.020Z,89.97
2023-08-15T03:48:37.975Z,87.41
2023-08-15T03:49:38.067Z,90.41
2023-08-15T03:50:38.011Z,88.48
2023-08-15T03:51:46.583Z,87.18
2023-08-15T03:52:38.964Z,87.40
2023-08-15T03:53:37.957Z,87.67
2023-08-15T03:54:37.979Z,87.79
2023-08-15T03:55:37.947Z,88.46
2023-08-15T03:56:37.954Z,90.25
2023-08-15T03:57:37.936Z,88.45
2023-08-15T03:58:37.915Z,87.72
2023-08-15T03:59:37.917Z,88.08
2023-08-15T04:00:37.927Z,86.71
2023-08-15T04:01:37.928Z,87.01
2023-08-15T04:02:37.946Z,85.85
2023-08-15T04:03:37.977Z,87.21
2023-08-15T04:04:37.911Z,87.35
2023-08-15T04:05:37.923Z,88.77
2023-08-15T04:06:37.900Z,87.14
2023-08-15T04:07:37.910Z,87.37
2023-08-15T04:08:37.878Z,86.39
2023-08-15T04:09:37.865Z,85.36
2023-08-15T04:10:38.183Z,86.26
2023-08-15T04:11:37.882Z,84.22
2023-08-15T04:12:37.850Z,86.40
2023-08-15T04:13:37.841Z,88.60
2023-08-15T04:14:37.853Z,86.25
2023-08-15T04:15:37.817Z,87.88
2023-08-15T04:16:37.936Z,85.86
2023-08-15T04:17:37.829Z,89.45
2023-08-15T04:18:37.853Z,87.93
2023-08-15T04:19:37.808Z,88.00
2023-08-15T04:20:37.866Z,87.90
2023-08-15T04:21:37.777Z,87.57
2023-08-15T04:22:37.802Z,90.16
2023-08-15T04:23:37.757Z,90.55
2023-08-15T04:24:37.765Z,89.74
2023-08-15T04:25:37.748Z,89.78
2023-08-15T04:26:37.776Z,89.29
2023-08-15T04:27:37.727Z,93.33
2023-08-15T04:28:37.773Z,90.81
2023-08-15T04:29:37.787Z,90.29
2023-08-15T04:30:37.760Z,90.38
2023-08-15T04:31:37.764Z,90.36
2023-08-15T04:32:37.775Z,90.33
2023-08-15T04:33:37.745Z,90.96
2023-08-15T04:34:37.700Z,90.07
2023-08-15T04:35:37.675Z,93.48
2023-08-15T04:36:37.685Z,90.68
2023-08-15T04:37:37.719Z,88.63
2023-08-15T04:38:37.726Z,89.80
2023-08-15T04:39:37.665Z,88.46
2023-08-15T04:40:37.690Z,90.39
2023-08-15T04:41:37.631Z,90.94
2023-08-15T04:42:37.646Z,90.83
2023-08-15T04:43:37.646Z,90.94
2023-08-15T04:44:37.629Z,89.00
2023-08-15T04:45:37.621Z,88.82
2023-08-15T04:46:37.626Z,86.84
2023-08-15T04:47:37.698Z,89.75
2023-08-15T04:48:37.604Z,88.01
2023-08-15T04:49:37.593Z,87.45
2023-08-15T04:50:37.600Z,88.66
2023-08-15T04:51:37.669Z,86.29
2023-08-15T04:52:37.581Z,89.07
2023-08-15T04:53:37.605Z,90.29
2023-08-15T04:54:37.568Z,89.83
2023-08-15T04:55:37.563Z,89.70
2023-08-15T04:56:37.829Z,89.40
2023-08-15T04:57:37.564Z,87.99
2023-08-15T04:58:37.538Z,91.25
2023-08-15T04:59:37.543Z,90.69
2023-08-15T05:00:37.539Z,91.15
2023-08-15T05:01:37.646Z,91.51
2023-08-15T05:02:37.544Z,90.33
2023-08-15T05:03:37.502Z,90.92
2023-08-15T05:04:37.513Z,93.60
2023-08-15T05:05:37.572Z,91.53
2023-08-15T05:06:37.509Z,95.58
2023-08-15T05:07:37.529Z,94.32
2023-08-15T05:08:37.473Z,93.93
2023-08-15T05:09:37.528Z,92.71
2023-08-15T05:10:37.485Z,95.65
2023-08-15T05:11:37.493Z,93.94
2023-08-15T05:12:37.507Z,93.12
2023-08-15T05:13:37.496Z,94.22
2023-08-15T05:14:37.558Z,91.85
2023-08-15T05:15:37.550Z,94.35
2023-08-15T05:16:37.470Z,93.86
2023-08-15T05:17:37.529Z,92.38
2023-08-15T05:18:37.573Z,94.60
2023-08-15T05:19:37.613Z,93.45
2023-08-15T05:20:37.604Z,91.91
2023-08-15T05:21:37.671Z,91.56
2023-08-15T05:22:37.683Z,91.96
2023-08-15T05:23:37.731Z,91.53
2023-08-15T05:24:37.764Z,92.24
2023-08-15T05:25:37.855Z,92.06
2023-08-15T05:26:37.975Z,93.01
2023-08-15T05:27:37.948Z,95.74
2023-08-15T05:28:38.010Z,96.54
2023-08-15T05:29:38.079Z,97.51
2023-08-15T05:30:38.141Z,99.14
2023-08-15T05:31:38.273Z,104.00
2023-08-15T05:32:38.342Z,102.76
2023-08-15T05:33:38.351Z,105.78
2023-08-15T05:34:38.389Z,106.89
2023-08-15T05:35:38.459Z,107.00
2023-08-15T05:36:38.523Z,108.53
2023-08-15T05:37:38.600Z,108.44
2023-08-15T05:38:38.617Z,107.43
2023-08-15T05:39:38.661Z,106.00
2023-08-15T05:40:38.709Z,109.20
2023-08-15T05:41:38.802Z,106.97
2023-08-15T05:42:38.843Z,108.17
2023-08-15T05:43:38.898Z,107.75
2023-08-15T05:44:38.919Z,104.40
2023-08-15T05:45:38.986Z,109.47
2023-08-15T05:46:39.067Z,106.65
2023-08-15T05:47:39.109Z,109.70
2023-08-15T05:48:39.126Z,109.27
2023-08-15T05:49:39.166Z,107.56
2023-08-15T05:50:39.240Z,111.52
2023-08-15T05:51:39.254Z,113.78
2023-08-15T05:52:39.299Z,111.64
2023-08-15T05:53:39.319Z,113.28
2023-08-15T05:54:39.385Z,113.74
2023-08-15T05:55:39.428Z,112.02
2023-08-15T05:56:39.476Z,116.47
2023-08-15T05:57:39.489Z,114.23
2023-08-15T05:58:39.538Z,113.31
2023-08-15T05:59:39.573Z,116.37
2023-08-15T06:00:39.630Z,115.31
2023-08-15T06:01:39.624Z,115.99
2023-08-15T06:02:39.688Z,116.30
2023-08-15T06:03:51.908Z,118.29
2023-08-15T06:04:40.766Z,118.49
2023-08-15T06:05:39.674Z,118.80
2023-08-15T06:06:39.684Z,119.32
2023-08-15T06:07:39.673Z,120.51
2023-08-15T06:08:39.698Z,121.83
2023-08-15T06:09:39.664Z,123.33
2023-08-15T06:10:39.652Z,122.38
2023-08-15T06:11:39.652Z,122.25
2023-08-15T06:12:39.660Z,122.05
2023-08-15T06:13:39.659Z,122.67
2023-08-15T06:14:39.627Z,123.20
2023-08-15T06:15:39.614Z,123.73
2023-08-15T06:16:39.649Z,122.40
2023-08-15T06:17:39.622Z,123.31
2023-08-15T06:18:39.596Z,123.59
2023-08-15T06:19:39.607Z,122.89
2023-08-15T06:20:39.571Z,118.74
2023-08-15T06:21:39.581Z,122.61
2023-08-15T06:22:39.571Z,124.43
2023-08-15T06:23:39.592Z,123.14
2023-08-15T06:24:39.586Z,123.17
2023-08-15T06:25:39.544Z,123.99
2023-08-15T06:26:39.568Z,122.11
2023-08-15T06:27:39.615Z,123.11
2023-08-15T06:28:39.587Z,121.78
2023-08-15T06:29:39.598Z,124.39
2023-08-15T06:30:39.601Z,122.90
2023-08-15T06:31:39.587Z,122.20
2023-08-15T06:32:40.209Z,125.16
2023-08-15T06:33:39.602Z,123.92
2023-08-15T06:34:39.656Z,126.27
2023-08-15T06:35:39.628Z,125.33
2023-08-15T06:36:39.627Z,124.68
2023-08-15T06:37:39.646Z,124.23
2023-08-15T06:38:39.667Z,122.34
2023-08-15T06:39:39.628Z,123.23
2023-08-15T06:40:39.637Z,123.54
2023-08-15T06:41:39.636Z,119.78
2023-08-15T06:42:39.688Z,121.99
2023-08-15T06:43:39.643Z,122.33
2023-08-15T06:44:39.632Z,121.55
2023-08-15T06:45:39.652Z,122.02
2023-08-15T06:46:39.632Z,118.24
2023-08-15T06:47:39.660Z,121.76
2023-08-15T06:48:39.632Z,123.24
2023-08-15T06:49:39.625Z,122.56
2023-08-15T06:50:39.619Z,121.89
2023-08-15T06:51:39.622Z,119.18
2023-08-15T06:52:39.589Z,119.44
2023-08-15T06:53:39.625Z,119.97
2023-08-15T06:54:39.663Z,120.04
2023-08-15T06:55:39.692Z,119.42
2023-08-15T06:56:39.716Z,119.44
2023-08-15T06:57:39.766Z,118.98
2023-08-15T06:58:39.796Z,117.77
2023-08-15T06:59:39.930Z,120.93
2023-08-15T07:00:39.855Z,119.21
2023-08-15T07:01:39.897Z,122.99
2023-08-15T07:02:39.943Z,120.20
2023-08-15T07:03:40.059Z,120.86
2023-08-15T07:04:39.950Z,120.19
2023-08-15T07:05:40.050Z,120.01
2023-08-15T07:06:40.009Z,121.83
2023-08-15T07:07:40.025Z,123.86
2023-08-15T07:08:40.111Z,124.61
2023-08-15T07:09:40.083Z,120.28
2023-08-15T07:10:40.127Z,122.12
2023-08-15T07:11:40.153Z,123.13
2023-08-15T07:12:40.192Z,123.80
2023-08-15T07:13:40.185Z,122.08
2023-08-15T07:14:40.199Z,122.41
2023-08-15T07:15:40.225Z,123.33
2023-08-15T07:16:40.239Z,124.67
2023-08-15T07:17:40.425Z,125.91
2023-08-15T07:18:40.268Z,124.21
2023-08-15T07:19:40.246Z,126.50
2023-08-15T07:20:40.244Z,126.35
2023-08-15T07:21:40.251Z,128.75
2023-08-15T07:22:40.248Z,127.27
2023-08-15T07:23:40.255Z,128.80
2023-08-15T07:24:40.266Z,129.31
2023-08-15T07:25:40.302Z,126.51
2023-08-15T07:26:40.276Z,129.89
2023-08-15T07:27:40.291Z,129.53
2023-08-15T07:28:40.326Z,124.47
2023-08-15T07:29:40.339Z,129.45
2023-08-15T07:30:40.396Z,129.88
2023-08-15T07:31:40.353Z,128.00
2023-08-15T07:32:40.353Z,129.55
2023-08-15T07:33:40.340Z,133.48
2023-08-15T07:34:40.388Z,132.18
2023-08-15T07:35:40.383Z,133.08
2023-08-15T07:36:40.419Z,132.28
2023-08-15T07:37:40.386Z,132.93
2023-08-15T07:38:40.467Z,136.69
2023-08-15T07:39:40.392Z,136.60
2023-08-15T07:40:40.502Z,135.79
2023-08-15T07:41:40.410Z,136.00
2023-08-15T07:42:40.442Z,135.10
2023-08-15T07:43:40.437Z,136.77
2023-08-15T07:44:40.437Z,137.31
2023-08-15T07:45:40.469Z,137.86
2023-08-15T07:46:40.448Z,139.65
2023-08-15T07:47:40.477Z,138.59
2023-08-15T07:48:40.472Z,141.56
2023-08-15T07:49:40.448Z,141.94
2023-08-15T07:50:40.486Z,141.08
2023-08-15T07:51:40.485Z,139.10
2023-08-15T07:52:40.511Z,142.28
2023-08-15T07:53:40.534Z,144.85
2023-08-15T07:54:40.577Z,145.11
2023-08-15T07:55:40.564Z,142.56
2023-08-15T07:56:40.581Z,143.78
2023-08-15T07:57:40.645Z,141.75
2023-08-15T07:58:40.633Z,143.36
2023-08-15T07:59:40.708Z,140.03
2023-08-15T08:00:40.791Z,140.70
2023-08-15T08:01:40.705Z,142.74
2023-08-15T08:02:40.753Z,142.58
2023-08-15T08:03:40.718Z,143.59
2023-08-15T08:04:40.740Z,139.39
2023-08-15T08:05:40.824Z,141.35
2023-08-15T08:06:41.495Z,142.89
2023-08-15T08:07:40.798Z,142.72
2023-08-15T08:08:40.811Z,144.80
2023-08-15T08:09:40.828Z,145.73
2023-08-15T08:10:40.847Z,144.41
2023-08-15T08:11:40.933Z,140.48
2023-08-15T08:12:40.928Z,142.68
2023-08-15T08:13:41.022Z,144.79
2023-08-15T08:14:52.379Z,142.99
2023-08-15T08:15:42.012Z,143.34
2023-08-15T08:16:41.004Z,143.36
2023-08-15T08:17:41.088Z,144.10
2023-08-15T08:18:41.002Z,145.99
2023-08-15T08:19:40.978Z,144.71
2023-08-15T08:20:41.007Z,145.38
2023-08-15T08:21:41.072Z,144.77
2023-08-15T08:22:40.985Z,149.22
2023-08-15T08:23:40.999Z,141.53
2023-08-15T08:24:41.063Z,138.20
2023-08-15T08:25:41.125Z,136.37
2023-08-15T08:26:41.208Z,138.80
2023-08-15T08:27:41.219Z,137.08
2023-08-15T08:28:41.349Z,137.78
2023-08-15T08:29:41.407Z,137.06
2023-08-15T08:30:41.418Z,134.33
2023-08-15T08:31:41.531Z,138.49
2023-08-15T08:32:41.599Z,137.15
2023-08-15T08:33:41.616Z,136.08
2023-08-15T08:34:42.060Z,136.18
2023-08-15T08:35:41.690Z,137.44
2023-08-15T08:36:41.736Z,136.52
2023-08-15T08:37:41.786Z,139.57
2023-08-15T08:38:41.830Z,138.46
2023-08-15T08:39:41.926Z,136.61
2023-08-15T08:40:42.011Z,131.09
2023-08-15T08:41:41.942Z,130.89
2023-08-15T08:42:42.035Z,129.28
2023-08-15T08:43:42.024Z,128.56
2023-08-15T08:44:42.056Z,130.36
2023-08-15T08:45:42.139Z,127.46
2023-08-15T08:46:42.104Z,129.85
2023-08-15T08:47:42.308Z,130.02
2023-08-15T08:48:42.207Z,130.72
2023-08-15T08:49:42.194Z,126.18
2023-08-15T08:50:42.215Z,129.10
2023-08-15T08:51:42.237Z,125.14
2023-08-15T08:52:42.266Z,125.26
2023-08-15T08:53:42.317Z,127.88
2023-08-15T08:54:56.477Z,124.47
2023-08-15T08:55:43.308Z,124.72
2023-08-15T08:56:42.293Z,124.68
2023-08-15T08:57:42.284Z,122.77
2023-08-15T08:58:42.266Z,120.53
2023-08-15T08:59:42.268Z,121.70
2023-08-15T09:00:42.379Z,121.48
2023-08-15T09:01:42.288Z,118.97
2023-08-15T09:02:42.358Z,114.57
2023-08-15T09:03:42.301Z,115.29
2023-08-15T09:04:42.276Z,112.63
2023-08-15T09:05:42.272Z,114.35
2023-08-15T09:06:42.274Z,112.36
2023-08-15T09:07:42.228Z,111.24
2023-08-15T09:08:42.255Z,108.56
2023-08-15T09:09:42.226Z,106.78
2023-08-15T09:10:42.248Z,105.06
2023-08-15T09:11:42.215Z,105.82
2023-08-15T09:12:42.185Z,107.71
2023-08-15T09:13:42.179Z,108.40
2023-08-15T09:14:42.195Z,107.39
2023-08-15T09:15:42.201Z,107.92
2023-08-15T09:16:42.159Z,110.31
2023-08-15T09:17:42.202Z,111.30
2023-08-15T09:18:42.150Z,109.81
2023-08-15T09:19:42.124Z,110.77
2023-08-15T09:20:42.162Z,112.44
2023-08-15T09:21:42.123Z,110.94
2023-08-15T09:22:42.170Z,112.06
2023-08-15T09:23:42.114Z,111.21
2023-08-15T09:24:42.192Z,111.90
2023-08-15T09:25:42.200Z,112.88
2023-08-15T09:26:42.161Z,110.63
2023-08-15T09:27:42.151Z,110.29
2023-08-15T09:28:42.171Z,111.05
2023-08-15T09:29:42.185Z,112.85
2023-08-15T09:30:42.215Z,112.05
2023-08-15T09:31:42.258Z,111.46
2023-08-15T09:32:42.333Z,110.55
2023-08-15T09:33:42.306Z,106.39
2023-08-15T09:34:42.355Z,112.83
2023-08-15T09:35:57.292Z,112.34
2023-08-15T09:36:43.351Z,112.56
2023-08-15T09:37:42.338Z,109.92
2023-08-15T09:38:42.367Z,106.90
2023-08-15T09:39:42.328Z,105.20
2023-08-15T09:40:42.350Z,106.79
2023-08-15T09:41:42.345Z,98.44
2023-08-15T09:42:42.322Z,101.08
2023-08-15T09:43:42.280Z,96.92
2023-08-15T09:44:42.309Z,95.65
2023-08-15T09:45:42.314Z,89.58
2023-08-15T09:46:42.375Z,89.31
2023-08-15T09:47:42.384Z,89.59
2023-08-15T09:48:42.330Z,86.59
2023-08-15T09:49:42.358Z,87.32
2023-08-15T09:50:42.453Z,86.26
2023-08-15T09:51:42.467Z,85.55
2023-08-15T09:52:42.468Z,87.18
2023-08-15T09:53:42.510Z,88.09
2023-08-15T09:54:42.546Z,87.91
2023-08-15T09:55:42.587Z,86.60
2023-08-15T09:56:43.007Z,88.27
2023-08-15T09:57:42.640Z,90.58
2023-08-15T09:58:42.719Z,88.32
2023-08-15T09:59:42.758Z,91.51
2023-08-15T10:00:42.847Z,94.81
2023-08-15T10:01:42.902Z,94.58
2023-08-15T10:02:42.988Z,98.30
2023-08-15T10:03:43.016Z,95.87
2023-08-15T10:04:43.053Z,98.18
2023-08-15T10:05:43.119Z,99.99
2023-08-15T10:06:43.192Z,96.73
2023-08-15T10:07:43.135Z,93.10
2023-08-15T10:08:43.182Z,94.85
2023-08-15T10:09:43.247Z,93.21
2023-08-15T10:10:43.215Z,90.87
2023-08-15T10:11:43.229Z,96.20
2023-08-15T10:12:43.265Z,92.13
2023-08-15T10:13:43.220Z,99.52
2023-08-15T10:14:43.261Z,97.29
2023-08-15T10:15:43.287Z,95.53
2023-08-15T10:16:43.309Z,93.71
2023-08-15T10:17:43.351Z,96.15
2023-08-15T10:18:43.299Z,96.88
2023-08-15T10:19:43.249Z,98.53
2023-08-15T10:20:43.326Z,97.11
2023-08-15T10:21:43.313Z,99.65
2023-08-15T10:22:43.290Z,98.48
2023-08-15T10:23:43.315Z,98.15
2023-08-15T10:24:43.321Z,94.69
2023-08-15T10:25:43.360Z,100.05
2023-08-15T10:26:43.321Z,97.72
2023-08-15T10:27:43.330Z,97.19
2023-08-15T10:28:43.325Z,97.82
2023-08-15T10:29:43.318Z,96.96
2023-08-15T10:30:43.592Z,97.16
2023-08-15T10:31:43.382Z,100.18
2023-08-15T10:32:43.331Z,91.95
2023-08-15T10:33:43.340Z,91.57
2023-08-15T10:34:43.314Z,95.14
2023-08-15T10:35:43.351Z,95.26
2023-08-15T10:36:43.298Z,93.45
2023-08-15T10:37:43.303Z,91.43
2023-08-15T10:38:43.278Z,94.67
2023-08-15T10:39:43.280Z,94.65
2023-08-15T10:40:43.281Z,99.33
2023-08-15T10:41:43.330Z,100.11
2023-08-15T10:42:43.268Z,99.62
2023-08-15T10:43:43.292Z,97.59
2023-08-15T10:44:43.254Z,95.80
2023-08-15T10:45:43.252Z,94.78
2023-08-15T10:46:43.411Z,94.19
2023-08-15T10:47:43.319Z,93.78
2023-08-15T10:48:55.757Z,92.35
2023-08-15T10:49:44.234Z,92.63
2023-08-15T10:50:43.253Z,92.86
2023-08-15T10:51:43.222Z,93.89
2023-08-15T10:52:43.200Z,93.13
2023-08-15T10:53:43.197Z,93.67
2023-08-15T10:54:43.191Z,92.53
2023-08-15T10:55:43.173Z,92.81
2023-08-15T10:56:43.167Z,92.52
2023-08-15T10:57:43.170Z,93.44
2023-08-15T10:58:43.135Z,88.52
2023-08-15T10:59:43.207Z,90.40
2023-08-15T11:00:43.144Z,88.47
2023-08-15T11:01:43.209Z,92.63
2023-08-15T11:02:44.289Z,92.87
2023-08-15T11:03:43.175Z,93.34
2023-08-15T11:04:43.220Z,93.42
2023-08-15T11:05:43.110Z,91.93
2023-08-15T11:06:43.174Z,88.61
2023-08-15T11:07:43.118Z,85.16
2023-08-15T11:08:43.111Z,84.68
2023-08-15T11:09:43.073Z,85.53
2023-08-15T11:10:43.091Z,89.98
2023-08-15T11:11:43.090Z,90.08
2023-08-15T11:12:43.128Z,90.99
2023-08-15T11:13:43.056Z,89.64
2023-08-15T11:14:43.059Z,83.73
2023-08-15T11:15:43.044Z,88.92
2023-08-15T11:16:43.075Z,89.36
2023-08-15T11:17:43.066Z,89.22
2023-08-15T11:18:43.095Z,89.56
2023-08-15T11:19:43.042Z,89.35
2023-08-15T11:20:43.049Z,95.55
2023-08-15T11:21:43.041Z,93.95
2023-08-15T11:22:43.020Z,99.99
2023-08-15T11:23:42.989Z,98.26
2023-08-15T11:24:43.016Z,94.18
2023-08-15T11:25:43.011Z,89.09
2023-08-15T11:26:43.005Z,86.61
2023-08-15T11:27:43.010Z,91.56
2023-08-15T11:28:42.957Z,89.34
2023-08-15T11:29:42.954Z,92.46
2023-08-15T11:30:42.946Z,90.65
2023-08-15T11:31:43.180Z,93.58
2023-08-15T11:32:42.986Z,92.65
2023-08-15T11:33:43.025Z,87.69
2023-08-15T11:34:42.912Z,91.16
2023-08-15T11:35:42.935Z,90.44
2023-08-15T11:36:42.939Z,89.42
2023-08-15T11:37:42.977Z,93.05
2023-08-15T11:38:42.972Z,88.58
2023-08-15T11:39:43.006Z,90.20
2023-08-15T11:40:43.025Z,92.26
2023-08-15T11:41:43.081Z,96.07
2023-08-15T11:42:43.050Z,94.94
2023-08-15T11:43:43.093Z,98.58
2023-08-15T11:44:43.051Z,89.04
2023-08-15T11:45:43.051Z,90.55
2023-08-15T11:46:54.088Z,89.09
2023-08-15T11:47:44.057Z,89.53
2023-08-15T11:48:43.059Z,90.29
2023-08-15T11:49:46.785Z,89.81
2023-08-15T11:50:44.909Z,89.43
2023-08-15T11:51:43.032Z,90.78
2023-08-15T11:52:43.002Z,90.06
2023-08-15T11:53:42.997Z,88.38
2023-08-15T11:54:42.986Z,88.01
2023-08-15T11:55:42.987Z,93.67
2023-08-15T11:56:42.977Z,93.58
2023-08-15T11:57:42.995Z,88.36
2023-08-15T11:58:44.209Z,87.43
2023-08-15T11:59:42.976Z,84.65
2023-08-15T12:00:42.944Z,87.87
2023-08-15T12:01:43.061Z,89.64
2023-08-15T12:02:43.010Z,90.12
2023-08-15T12:03:42.976Z,89.02
2023-08-15T12:04:42.922Z,89.18
2023-08-15T12:05:42.923Z,88.38
2023-08-15T12:06:42.905Z,87.78
2023-08-15T12:07:43.035Z,88.54
2023-08-15T12:08:42.990Z,88.53
2023-08-15T12:09:42.907Z,90.93
2023-08-15T12:10:42.904Z,90.76
2023-08-15T12:11:42.915Z,94.45
2023-08-15T12:12:42.873Z,90.28
2023-08-15T12:13:42.867Z,85.37
2023-08-15T12:14:51.017Z,82.00
2023-08-15T12:15:43.935Z,82.33
2023-08-15T12:16:42.873Z,82.95
2023-08-15T12:17:42.902Z,84.64
2023-08-15T12:18:42.907Z,86.97
2023-08-15T12:19:42.893Z,88.91
2023-08-15T12:20:42.839Z,90.47
2023-08-15T12:21:42.989Z,90.54
2023-08-15T12:22:42.842Z,86.21
2023-08-15T12:23:42.866Z,87.15
2023-08-15T12:24:42.834Z,95.42
2023-08-15T12:25:42.838Z,92.77
2023-08-15T12:26:42.841Z,86.94
2023-08-15T12:27:42.839Z,89.59
2023-08-15T12:28:42.806Z,86.27
2023-08-15T12:29:44.811Z,88.58
2023-08-15T12:30:43.820Z,88.84
2023-08-15T12:31:42.896Z,89.63
2023-08-15T12:32:42.888Z,90.48
2023-08-15T12:33:47.350Z,89.28
2023-08-15T12:34:42.819Z,88.77
2023-08-15T12:35:42.763Z,89.45
2023-08-15T12:36:42.756Z,89.43
2023-08-15T12:37:42.784Z,85.40
2023-08-15T12:38:42.779Z,82.94
2023-08-15T12:39:42.742Z,90.15
2023-08-15T12:40:42.712Z,89.88
2023-08-15T12:41:42.730Z,84.46
2023-08-15T12:42:42.757Z,85.54
2023-08-15T12:43:42.712Z,83.58
2023-08-15T12:44:42.701Z,83.70